createdAt,value
2018-12-09T00:00:16.951Z,3.80
2018-12-09T00:01:16.921Z,4.00
2018-12-09T00:02:16.937Z,3.70
2018-12-09T00:03:16.905Z,3.90
2018-12-09T00:04:16.898Z,3.50
2018-12-09T00:05:16.903Z,3.40
2018-12-09T00:06:16.898Z,3.90
2018-12-09T00:07:16.862Z,4.00
2018-12-09T00:08:16.845Z,3.70
2018-12-09T00:09:16.842Z,3.90
2018-12-09T00:10:16.848Z,4.30
2018-12-09T00:11:16.889Z,4.00
2018-12-09T00:12:16.805Z,4.20
2018-12-09T00:13:16.792Z,3.70
2018-12-09T00:14:16.784Z,4.10
2018-12-09T00:15:16.794Z,4.20
2018-12-09T00:16:16.766Z,4.20
2018-12-09T00:17:16.780Z,4.60
2018-12-09T00:18:16.743Z,4.30
2018-12-09T00:19:16.730Z,4.40
2018-12-09T00:20:16.734Z,4.40
2018-12-09T00:21:16.708Z,4.90
2018-12-09T00:22:16.712Z,4.70
2018-12-09T00:23:16.689Z,4.40
2018-12-09T00:24:16.680Z,3.90
2018-12-09T00:25:16.692Z,4.40
2018-12-09T00:26:16.654Z,4.20
2018-12-09T00:27:16.647Z,4.20
2018-12-09T00:28:16.708Z,4.50
2018-12-09T00:29:16.651Z,4.40
2018-12-09T00:30:16.614Z,4.50
2018-12-09T00:31:16.678Z,4.40
2018-12-09T00:32:16.587Z,4.40
2018-12-09T00:33:16.576Z,4.20
2018-12-09T00:34:16.571Z,4.20
2018-12-09T00:35:16.560Z,4.30
2018-12-09T00:36:16.550Z,3.90
2018-12-09T00:37:16.556Z,4.40
2018-12-09T00:38:16.527Z,4.80
2018-12-09T00:39:16.513Z,5.10
2018-12-09T00:40:16.500Z,5.20
2018-12-09T00:41:16.496Z,3.50
2018-12-09T00:42:16.515Z,3.80
2018-12-09T00:43:16.472Z,3.50
2018-12-09T00:44:16.457Z,3.00
2018-12-09T00:45:16.448Z,3.00
2018-12-09T00:46:16.441Z,3.20
2018-12-09T00:47:16.447Z,3.10
2018-12-09T00:48:16.421Z,2.90
2018-12-09T00:49:16.409Z,2.90
2018-12-09T00:50:16.415Z,2.60
2018-12-09T00:51:16.384Z,2.80
2018-12-09T00:52:16.371Z,2.70
2018-12-09T00:53:16.383Z,2.70
2018-12-09T00:54:16.379Z,3.10
2018-12-09T00:55:16.344Z,3.50
2018-12-09T00:56:16.337Z,3.60
2018-12-09T00:57:16.317Z,4.40
2018-12-09T00:58:16.326Z,3.90
2018-12-09T00:59:16.300Z,5.50
2018-12-09T01:00:16.292Z,5.00
2018-12-09T01:01:16.281Z,5.50
2018-12-09T01:02:16.275Z,5.40
2018-12-09T01:03:16.272Z,5.10
2018-12-09T01:04:16.245Z,4.80
2018-12-09T01:05:16.250Z,5.60
2018-12-09T01:06:16.240Z,5.30
2018-12-09T01:07:16.215Z,5.30
2018-12-09T01:08:16.208Z,4.60
2018-12-09T01:09:16.212Z,4.20
2018-12-09T01:10:16.184Z,4.00
2018-12-09T01:11:16.171Z,3.80
2018-12-09T01:12:16.156Z,3.40
2018-12-09T01:13:16.153Z,3.60
2018-12-09T01:14:16.158Z,3.10
2018-12-09T01:15:16.171Z,3.10
2018-12-09T01:16:16.114Z,2.60
2018-12-09T01:17:16.106Z,2.40
2018-12-09T01:18:16.098Z,2.80
2018-12-09T01:19:16.110Z,2.20
2018-12-09T01:20:16.078Z,2.60
2018-12-09T01:21:16.068Z,2.80
2018-12-09T01:22:16.057Z,2.90
2018-12-09T01:23:16.042Z,3.20
2018-12-09T01:24:16.030Z,3.70
2018-12-09T01:25:16.046Z,4.40
2018-12-09T01:26:16.010Z,4.20
2018-12-09T01:27:16.010Z,4.90
2018-12-09T01:28:15.993Z,5.00
2018-12-09T01:29:15.978Z,5.80
2018-12-09T01:30:15.966Z,5.20
2018-12-09T01:31:15.976Z,5.90
2018-12-09T01:32:15.949Z,6.20
2018-12-09T01:33:15.941Z,4.90
2018-12-09T01:34:15.944Z,5.50
2018-12-09T01:35:15.916Z,5.30
2018-12-09T01:36:15.918Z,5.30
2018-12-09T01:37:15.894Z,4.70
2018-12-09T01:38:15.882Z,5.10
2018-12-09T01:39:15.876Z,4.40
2018-12-09T01:40:15.866Z,5.00
2018-12-09T01:41:15.872Z,4.40
2018-12-09T01:42:15.840Z,4.40
2018-12-09T01:43:15.829Z,4.50
2018-12-09T01:44:15.815Z,4.30
2018-12-09T01:45:15.836Z,4.50
2018-12-09T01:46:15.829Z,4.30
2018-12-09T01:47:15.785Z,4.40
2018-12-09T01:48:15.788Z,4.10
2018-12-09T01:49:15.762Z,4.20
2018-12-09T01:50:15.770Z,4.40
2018-12-09T01:51:15.744Z,3.90
2018-12-09T01:52:15.736Z,4.30
2018-12-09T01:53:15.725Z,4.20
2018-12-09T01:54:15.731Z,4.50
2018-12-09T01:55:15.700Z,4.40
2018-12-09T01:56:15.686Z,5.30
2018-12-09T01:57:15.676Z,4.30
2018-12-09T01:58:15.669Z,4.40
2018-12-09T01:59:15.684Z,5.10
2018-12-09T02:00:15.649Z,3.60
2018-12-09T02:01:15.633Z,4.20
2018-12-09T02:02:15.624Z,4.60
2018-12-09T02:03:15.632Z,4.70
2018-12-09T02:04:15.609Z,5.10
2018-12-09T02:05:15.596Z,4.80
2018-12-09T02:06:15.583Z,4.70
2018-12-09T02:07:15.569Z,5.00
2018-12-09T02:08:15.754Z,4.60
2018-12-09T02:09:15.578Z,5.10
2018-12-09T02:10:15.578Z,4.80
2018-12-09T02:11:15.529Z,4.80
2018-12-09T02:12:15.520Z,5.20
2018-12-09T02:13:15.527Z,6.00
2018-12-09T02:14:15.496Z,5.40
2018-12-09T02:15:15.501Z,5.00
2018-12-09T02:16:15.473Z,5.60
2018-12-09T02:17:15.468Z,5.40
2018-12-09T02:18:15.463Z,5.70
2018-12-09T02:19:15.441Z,5.90
2018-12-09T02:20:15.456Z,6.00
2018-12-09T02:21:15.416Z,6.60
2018-12-09T02:22:15.407Z,5.50
2018-12-09T02:23:15.403Z,6.10
2018-12-09T02:24:15.391Z,7.60
2018-12-09T02:25:15.380Z,5.90
2018-12-09T02:26:15.385Z,6.00
2018-12-09T02:27:15.356Z,6.10
2018-12-09T02:28:15.343Z,6.70
2018-12-09T02:29:15.330Z,6.30
2018-12-09T02:30:15.340Z,6.20
2018-12-09T02:31:15.316Z,5.40
2018-12-09T02:32:15.306Z,5.20
2018-12-09T02:33:15.291Z,5.90
2018-12-09T02:34:15.277Z,6.30
2018-12-09T02:35:15.297Z,6.70
2018-12-09T02:36:15.266Z,6.10
2018-12-09T02:37:15.257Z,6.80
2018-12-09T02:38:15.255Z,7.60
2018-12-09T02:39:15.226Z,7.00
2018-12-09T02:40:15.216Z,6.90
2018-12-09T02:41:15.244Z,6.90
2018-12-09T02:42:15.199Z,6.70
2018-12-09T02:43:15.180Z,6.70
2018-12-09T02:44:15.184Z,6.20
2018-12-09T02:45:15.164Z,7.20
2018-12-09T02:46:15.147Z,6.90
2018-12-09T02:47:15.166Z,7.40
2018-12-09T02:48:15.131Z,7.20
2018-12-09T02:49:15.120Z,7.10
2018-12-09T02:50:15.128Z,7.30
2018-12-09T02:51:15.120Z,7.40
2018-12-09T02:52:15.089Z,7.10
2018-12-09T02:53:15.077Z,7.00
2018-12-09T02:54:15.071Z,7.40
2018-12-09T02:55:15.074Z,7.10
2018-12-09T02:56:15.056Z,7.00
2018-12-09T02:57:15.038Z,6.50
2018-12-09T02:58:15.021Z,6.80
2018-12-09T02:59:15.015Z,6.30
2018-12-09T03:00:15.015Z,6.20
2018-12-09T03:01:15.008Z,6.40
2018-12-09T03:02:14.985Z,6.30
2018-12-09T03:03:14.967Z,6.00
2018-12-09T03:04:14.957Z,6.10
2018-12-09T03:05:14.950Z,6.10
2018-12-09T03:06:14.961Z,5.10
2018-12-09T03:07:14.940Z,5.70
2018-12-09T03:08:15.000Z,5.80
2018-12-09T03:09:14.905Z,5.30
2018-12-09T03:10:14.890Z,6.00
2018-12-09T03:11:14.912Z,5.40
2018-12-09T03:12:14.894Z,5.30
2018-12-09T03:13:14.866Z,5.80
2018-12-09T03:14:14.868Z,5.30
2018-12-09T03:15:14.837Z,5.20
2018-12-09T03:16:14.856Z,5.60
2018-12-09T03:17:14.817Z,5.20
2018-12-09T03:18:14.804Z,4.90
2018-12-09T03:19:14.800Z,4.90
2018-12-09T03:20:14.793Z,4.80
2018-12-09T03:21:14.777Z,5.10
2018-12-09T03:22:14.786Z,5.50
2018-12-09T03:23:14.760Z,5.50
2018-12-09T03:24:14.743Z,4.90
2018-12-09T03:25:14.733Z,5.10
2018-12-09T03:26:14.738Z,4.50
2018-12-09T03:27:14.726Z,5.00
2018-12-09T03:28:14.699Z,5.00
2018-12-09T03:29:14.689Z,5.30
2018-12-09T03:30:14.675Z,4.90
2018-12-09T03:31:14.689Z,4.90
2018-12-09T03:32:14.661Z,4.90
2018-12-09T03:33:14.648Z,4.70
2018-12-09T03:34:14.638Z,4.40
2018-12-09T03:35:14.622Z,4.60
2018-12-09T03:36:14.639Z,5.20
2018-12-09T03:37:14.608Z,4.80
2018-12-09T03:38:14.596Z,4.60
2018-12-09T03:39:14.596Z,4.50
2018-12-09T03:40:14.602Z,4.90
2018-12-09T03:41:14.568Z,4.20
2018-12-09T03:42:14.563Z,5.00
2018-12-09T03:43:14.543Z,4.80
2018-12-09T03:44:14.554Z,4.60
2018-12-09T03:45:14.523Z,4.60
2018-12-09T03:46:14.512Z,4.80
2018-12-09T03:47:14.531Z,4.90
2018-12-09T03:48:14.482Z,4.30
2018-12-09T03:49:14.474Z,4.90
2018-12-09T03:50:14.463Z,4.60
2018-12-09T03:51:14.476Z,4.20
2018-12-09T03:52:14.444Z,4.40
2018-12-09T03:53:14.430Z,4.60
2018-12-09T03:54:14.418Z,4.20
2018-12-09T03:55:14.419Z,5.60
2018-12-09T03:56:14.422Z,4.70
2018-12-09T03:57:14.407Z,5.00
2018-12-09T03:58:14.383Z,4.50
2018-12-09T03:59:14.364Z,4.80
2018-12-09T04:00:14.366Z,4.70
2018-12-09T04:01:14.361Z,4.60
2018-12-09T04:02:14.335Z,5.00
2018-12-09T04:03:14.332Z,5.10
2018-12-09T04:04:14.314Z,5.20
2018-12-09T04:05:14.311Z,4.90
2018-12-09T04:06:14.318Z,4.60
2018-12-09T04:07:14.279Z,4.70
2018-12-09T04:08:14.267Z,5.30
2018-12-09T04:09:14.262Z,5.20
2018-12-09T04:10:14.251Z,4.60
2018-12-09T04:11:14.257Z,4.90
2018-12-09T04:12:14.225Z,5.20
2018-12-09T04:13:14.214Z,4.70
2018-12-09T04:14:14.202Z,5.30
2018-12-09T04:15:14.200Z,4.80
2018-12-09T04:16:14.184Z,6.00
2018-12-09T04:17:14.199Z,5.90
2018-12-09T04:18:14.165Z,5.40
2018-12-09T04:19:14.156Z,6.00
2018-12-09T04:20:14.140Z,5.90
2018-12-09T04:21:14.155Z,5.70
2018-12-09T04:22:14.118Z,4.90
2018-12-09T04:23:14.134Z,4.20
2018-12-09T04:24:14.100Z,4.10
2018-12-09T04:25:14.090Z,4.40
2018-12-09T04:26:14.114Z,4.30
2018-12-09T04:27:14.077Z,4.30
2018-12-09T04:28:14.057Z,3.90
2018-12-09T04:29:14.045Z,4.20
2018-12-09T04:30:14.038Z,4.20
2018-12-09T04:31:14.020Z,4.30
2018-12-09T04:32:14.030Z,4.10
2018-12-09T04:33:13.997Z,4.30
2018-12-09T04:34:13.988Z,4.40
2018-12-09T04:35:13.984Z,4.50
2018-12-09T04:36:13.989Z,4.60
2018-12-09T04:37:13.980Z,4.70
2018-12-09T04:38:13.950Z,5.30
2018-12-09T04:39:13.932Z,5.10
2018-12-09T04:40:13.934Z,5.40
2018-12-09T04:41:13.940Z,5.50
2018-12-09T04:42:13.907Z,5.30
2018-12-09T04:43:13.927Z,5.80
2018-12-09T04:44:13.888Z,5.60
2018-12-09T04:45:13.871Z,5.50
2018-12-09T04:46:13.855Z,5.60
2018-12-09T04:47:13.852Z,5.60
2018-12-09T04:48:13.846Z,5.10
2018-12-09T04:49:13.854Z,6.00
2018-12-09T04:50:13.820Z,6.10
2018-12-09T04:51:13.803Z,5.40
2018-12-09T04:52:13.797Z,5.80
2018-12-09T04:53:13.787Z,5.60
2018-12-09T04:54:13.772Z,5.30
2018-12-09T04:55:13.786Z,5.50
2018-12-09T04:56:13.756Z,5.40
2018-12-09T04:57:13.749Z,4.70
2018-12-09T04:58:13.747Z,4.10
2018-12-09T04:59:13.731Z,5.00
2018-12-09T05:00:13.709Z,5.20
2018-12-09T05:01:13.699Z,4.90
2018-12-09T05:02:13.690Z,5.10
2018-12-09T05:03:13.695Z,5.50
2018-12-09T05:04:13.664Z,5.50
2018-12-09T05:05:13.660Z,5.00
2018-12-09T05:06:13.640Z,5.30
2018-12-09T05:07:13.636Z,5.00
2018-12-09T05:08:13.648Z,4.70
2018-12-09T05:09:13.620Z,5.50
2018-12-09T05:10:13.610Z,4.80
2018-12-09T05:11:13.586Z,4.80
2018-12-09T05:12:13.579Z,4.50
2018-12-09T05:13:13.569Z,4.60
2018-12-09T05:14:13.584Z,4.70
2018-12-09T05:15:13.543Z,5.10
2018-12-09T05:16:13.535Z,4.30
2018-12-09T05:17:13.524Z,4.60
2018-12-09T05:18:13.512Z,4.60
2018-12-09T05:19:13.512Z,4.50
2018-12-09T05:20:13.514Z,4.80
2018-12-09T05:21:13.485Z,5.40
2018-12-09T05:22:13.476Z,4.70
2018-12-09T05:23:13.456Z,4.80
2018-12-09T05:24:13.466Z,5.10
2018-12-09T05:25:13.437Z,5.10
2018-12-09T05:26:13.428Z,5.40
2018-12-09T05:27:13.424Z,5.50
2018-12-09T05:28:13.434Z,6.40
2018-12-09T05:29:13.395Z,5.20
2018-12-09T05:30:13.381Z,5.50
2018-12-09T05:31:13.377Z,5.80
2018-12-09T05:32:13.364Z,6.10
2018-12-09T05:33:13.353Z,6.90
2018-12-09T05:34:13.370Z,6.10
2018-12-09T05:35:13.347Z,6.50
2018-12-09T05:36:13.320Z,6.50
2018-12-09T05:37:13.308Z,6.00
2018-12-09T05:38:13.313Z,6.30
2018-12-09T05:39:13.318Z,6.50
2018-12-09T05:40:13.287Z,6.40
2018-12-09T05:41:13.274Z,6.20
2018-12-09T05:42:13.259Z,6.80
2018-12-09T05:43:13.242Z,7.20
2018-12-09T05:44:13.233Z,6.80
2018-12-09T05:45:13.258Z,6.50
2018-12-09T05:46:13.215Z,5.90
2018-12-09T05:47:13.204Z,6.50
2018-12-09T05:48:13.191Z,6.00
2018-12-09T05:49:13.207Z,5.60
2018-12-09T05:50:13.165Z,5.70
2018-12-09T05:51:13.162Z,5.30
2018-12-09T05:52:13.155Z,5.80
2018-12-09T05:53:13.141Z,5.70
2018-12-09T05:54:13.133Z,5.00
2018-12-09T05:55:13.130Z,5.50
2018-12-09T05:56:13.105Z,5.00
2018-12-09T05:57:13.094Z,5.90
2018-12-09T05:58:13.083Z,6.30
2018-12-09T05:59:13.078Z,5.80
2018-12-09T06:00:13.088Z,6.00
2018-12-09T06:01:13.051Z,5.60
2018-12-09T06:02:13.038Z,5.20
2018-12-09T06:03:13.033Z,4.80
2018-12-09T06:04:13.039Z,4.60
2018-12-09T06:05:13.012Z,5.40
2018-12-09T06:06:13.027Z,5.30
2018-12-09T06:07:12.987Z,5.80
2018-12-09T06:08:12.979Z,4.90
2018-12-09T06:09:12.983Z,5.50
2018-12-09T06:10:12.953Z,4.90
2018-12-09T06:11:12.974Z,6.50
2018-12-09T06:12:13.007Z,5.20
2018-12-09T06:13:12.928Z,4.70
2018-12-09T06:14:12.916Z,5.10
2018-12-09T06:15:12.900Z,5.20
2018-12-09T06:16:12.891Z,5.10
2018-12-09T06:17:12.904Z,5.00
2018-12-09T06:18:12.978Z,5.20
2018-12-09T06:19:12.856Z,4.80
2018-12-09T06:20:12.847Z,5.20
2018-12-09T06:21:12.847Z,5.10
2018-12-09T06:22:12.829Z,6.00
2018-12-09T06:23:12.840Z,5.00
2018-12-09T06:24:12.807Z,6.10
2018-12-09T06:25:12.799Z,6.30
2018-12-09T06:26:12.787Z,5.70
2018-12-09T06:27:12.773Z,7.10
2018-12-09T06:28:12.781Z,7.10
2018-12-09T06:29:12.769Z,7.40
2018-12-09T06:30:12.739Z,6.90
2018-12-09T06:31:12.734Z,7.50
2018-12-09T06:32:12.723Z,7.90
2018-12-09T06:33:12.735Z,7.30
2018-12-09T06:34:12.695Z,9.50
2018-12-09T06:35:12.701Z,8.00
2018-12-09T06:36:12.678Z,8.40
2018-12-09T06:37:12.668Z,9.00
2018-12-09T06:38:12.660Z,9.30
2018-12-09T06:39:12.685Z,9.20
2018-12-09T06:40:12.634Z,9.40
2018-12-09T06:41:12.622Z,8.40
2018-12-09T06:42:12.621Z,9.20
2018-12-09T06:43:12.615Z,8.50
2018-12-09T06:44:12.594Z,8.50
2018-12-09T06:45:12.602Z,8.50
2018-12-09T06:46:12.573Z,8.30
2018-12-09T06:47:12.556Z,7.10
2018-12-09T06:48:12.547Z,7.80
2018-12-09T06:49:12.540Z,8.10
2018-12-09T06:50:12.566Z,7.50
2018-12-09T06:51:12.526Z,7.90
2018-12-09T06:52:12.506Z,6.60
2018-12-09T06:53:12.494Z,7.50
2018-12-09T06:54:12.481Z,7.40
2018-12-09T06:55:12.502Z,6.80
2018-12-09T06:56:12.465Z,7.00
2018-12-09T06:57:12.455Z,7.10
2018-12-09T06:58:12.448Z,6.50
2018-12-09T06:59:12.462Z,6.50
2018-12-09T07:00:12.419Z,6.40
2018-12-09T07:01:12.426Z,5.80
2018-12-09T07:02:12.398Z,5.50
2018-12-09T07:03:12.388Z,6.00
2018-12-09T07:04:12.399Z,6.10
2018-12-09T07:05:12.377Z,5.90
2018-12-09T07:06:12.407Z,5.60
2018-12-09T07:07:12.346Z,5.40
2018-12-09T07:08:12.338Z,5.30
2018-12-09T07:09:12.333Z,5.40
2018-12-09T07:10:12.323Z,5.30
2018-12-09T07:11:12.323Z,5.40
2018-12-09T07:12:12.286Z,5.00
2018-12-09T07:13:12.281Z,5.60
2018-12-09T07:14:12.303Z,4.90
2018-12-09T07:15:12.260Z,5.50
2018-12-09T07:16:12.250Z,5.60
2018-12-09T07:17:12.295Z,6.30
2018-12-09T07:18:12.473Z,6.10
2018-12-09T07:19:12.324Z,6.90
2018-12-09T07:20:12.200Z,6.90
2018-12-09T07:21:12.196Z,6.90
2018-12-09T07:22:12.203Z,6.80
2018-12-09T07:23:12.171Z,7.40
2018-12-09T07:24:12.157Z,6.20
2018-12-09T07:25:12.175Z,7.00
2018-12-09T07:26:12.141Z,8.00
2018-12-09T07:27:12.130Z,7.20
2018-12-09T07:28:12.121Z,8.10
2018-12-09T07:29:12.136Z,8.80
2018-12-09T07:30:12.098Z,8.30
2018-12-09T07:31:12.085Z,8.60
2018-12-09T07:32:12.071Z,8.40
2018-12-09T07:33:12.062Z,8.10
2018-12-09T07:34:12.062Z,8.50
2018-12-09T07:35:12.066Z,8.70
2018-12-09T07:36:12.035Z,8.10
2018-12-09T07:37:12.018Z,7.90
2018-12-09T07:38:12.026Z,8.40
2018-12-09T07:39:12.026Z,7.70
2018-12-09T07:40:11.991Z,9.30
2018-12-09T07:41:11.985Z,8.20
2018-12-09T07:42:11.970Z,8.70
2018-12-09T07:43:11.968Z,8.80
2018-12-09T07:44:11.963Z,8.70
2018-12-09T07:45:11.968Z,8.90
2018-12-09T07:46:11.924Z,9.30
2018-12-09T07:47:11.921Z,9.00
2018-12-09T07:48:11.907Z,9.30
2018-12-09T07:49:11.896Z,9.10
2018-12-09T07:50:11.885Z,9.30
2018-12-09T07:51:11.887Z,8.90
2018-12-09T07:52:11.859Z,7.60
2018-12-09T07:53:11.853Z,8.70
2018-12-09T07:54:11.892Z,8.80
2018-12-09T07:55:11.853Z,9.80
2018-12-09T07:56:11.813Z,8.90
2018-12-09T07:57:11.805Z,9.30
2018-12-09T07:58:11.798Z,8.50
2018-12-09T07:59:11.787Z,10.80
2018-12-09T08:00:11.779Z,9.50
2018-12-09T08:01:11.789Z,10.80
2018-12-09T08:02:11.757Z,10.50
2018-12-09T08:03:11.741Z,9.70
2018-12-09T08:04:11.729Z,10.00
2018-12-09T08:05:11.720Z,10.50
2018-12-09T08:06:11.754Z,10.30
2018-12-09T08:07:11.702Z,10.40
2018-12-09T08:08:11.693Z,9.90
2018-12-09T08:09:12.237Z,11.50
2018-12-09T08:10:11.682Z,9.80
2018-12-09T08:11:11.656Z,11.20
2018-12-09T08:12:11.669Z,9.20
2018-12-09T08:13:11.638Z,8.20
2018-12-09T08:14:11.625Z,7.60
2018-12-09T08:15:11.634Z,9.10
2018-12-09T08:16:11.598Z,7.90
2018-12-09T08:17:11.607Z,8.20
2018-12-09T08:18:11.579Z,7.80
2018-12-09T08:19:11.574Z,8.40
2018-12-09T08:20:11.562Z,7.80
2018-12-09T08:21:11.552Z,8.30
2018-12-09T08:22:11.560Z,9.60
2018-12-09T08:23:11.529Z,7.60
2018-12-09T08:24:11.514Z,7.80
2018-12-09T08:25:11.513Z,7.60
2018-12-09T08:26:11.495Z,8.00
2018-12-09T08:27:11.508Z,7.50
2018-12-09T08:28:11.469Z,7.20
2018-12-09T08:29:11.459Z,7.40
2018-12-09T08:30:11.453Z,7.50
2018-12-09T08:31:11.441Z,7.40
2018-12-09T08:32:11.440Z,8.00
2018-12-09T08:33:11.439Z,7.90
2018-12-09T08:34:11.410Z,9.00
2018-12-09T08:35:11.401Z,7.60
2018-12-09T08:36:11.385Z,8.60
2018-12-09T08:37:11.413Z,7.70
2018-12-09T08:38:11.438Z,8.30
2018-12-09T08:39:11.376Z,8.10
2018-12-09T08:40:11.349Z,8.20
2018-12-09T08:41:11.331Z,7.50
2018-12-09T08:42:11.320Z,7.30
2018-12-09T08:43:11.341Z,7.60
2018-12-09T08:44:11.304Z,7.30
2018-12-09T08:45:11.357Z,7.50
2018-12-09T08:46:11.299Z,7.50
2018-12-09T08:47:11.266Z,7.80
2018-12-09T08:48:11.261Z,7.40
2018-12-09T08:49:11.484Z,8.00
2018-12-09T08:50:11.235Z,9.10
2018-12-09T08:51:11.226Z,8.40
2018-12-09T08:52:11.234Z,7.30
2018-12-09T08:53:11.212Z,7.50
2018-12-09T08:54:11.194Z,7.70
2018-12-09T08:55:11.199Z,7.20
2018-12-09T08:56:11.189Z,6.80
2018-12-09T08:57:11.168Z,7.00
2018-12-09T08:58:11.151Z,6.60
2018-12-09T08:59:11.157Z,6.90
2018-12-09T09:00:11.125Z,7.10
2018-12-09T09:01:11.139Z,7.90
2018-12-09T09:02:11.105Z,7.00
2018-12-09T09:03:11.097Z,6.60
2018-12-09T09:04:11.088Z,7.60
2018-12-09T09:05:11.082Z,7.10
2018-12-09T09:06:11.065Z,7.10
2018-12-09T09:07:11.271Z,7.90
2018-12-09T09:08:11.105Z,7.30
2018-12-09T09:09:11.036Z,8.10
2018-12-09T09:10:11.021Z,8.10
2018-12-09T09:11:11.011Z,7.50
2018-12-09T09:12:11.004Z,7.90
2018-12-09T09:13:11.027Z,7.90
2018-12-09T09:14:11.019Z,7.70
2018-12-09T09:15:10.988Z,8.60
2018-12-09T09:16:10.994Z,7.70
2018-12-09T09:17:10.975Z,7.70
2018-12-09T09:18:10.968Z,8.40
2018-12-09T09:19:10.970Z,8.60
2018-12-09T09:20:10.910Z,7.90
2018-12-09T09:21:10.898Z,7.70
2018-12-09T09:22:10.890Z,8.00
2018-12-09T09:23:10.882Z,8.90
2018-12-09T09:24:10.884Z,10.00
2018-12-09T09:25:10.885Z,9.50
2018-12-09T09:26:10.857Z,10.90
2018-12-09T09:27:10.836Z,9.00
2018-12-09T09:28:10.824Z,4.00
2018-12-09T09:29:10.833Z,4.40
2018-12-09T09:30:10.824Z,4.30
2018-12-09T09:31:10.794Z,4.10
2018-12-09T09:32:10.798Z,3.50
2018-12-09T09:33:10.770Z,4.90
2018-12-09T09:34:10.762Z,4.10
2018-12-09T09:35:10.777Z,5.10
2018-12-09T09:36:10.747Z,6.70
2018-12-09T09:37:10.733Z,4.60
2018-12-09T09:38:10.722Z,5.30
2018-12-09T09:39:10.810Z,2.80
2018-12-09T09:40:10.696Z,2.20
2018-12-09T09:41:10.702Z,2.80
2018-12-09T09:42:10.678Z,3.90
2018-12-09T09:43:10.669Z,3.40
2018-12-09T09:44:10.660Z,4.20
2018-12-09T09:45:10.681Z,5.70
2018-12-09T09:46:10.639Z,3.80
2018-12-09T09:47:10.626Z,5.90
2018-12-09T09:48:10.638Z,8.30
2018-12-09T09:49:10.607Z,7.30
2018-12-09T09:50:12.082Z,8.70
2018-12-09T09:51:10.581Z,9.20
2018-12-09T09:52:10.567Z,6.90
2018-12-09T09:53:10.573Z,4.40
2018-12-09T09:54:10.549Z,4.80
2018-12-09T09:55:10.541Z,3.60
2018-12-09T09:56:10.532Z,6.40
2018-12-09T09:57:10.521Z,3.50
2018-12-09T09:58:10.535Z,4.70
2018-12-09T09:59:10.494Z,4.10
2018-12-09T10:00:10.487Z,2.70
2018-12-09T10:01:10.478Z,2.40
2018-12-09T10:02:10.465Z,2.60
2018-12-09T10:03:10.458Z,3.20
2018-12-09T10:04:10.465Z,3.50
2018-12-09T10:05:10.427Z,5.80
2018-12-09T10:06:10.420Z,3.30
2018-12-09T10:07:10.410Z,3.30
2018-12-09T10:08:10.418Z,2.60
2018-12-09T10:09:10.391Z,3.00
2018-12-09T10:10:10.412Z,2.50
2018-12-09T10:11:10.375Z,2.70
2018-12-09T10:12:10.374Z,1.60
2018-12-09T10:13:10.342Z,2.40
2018-12-09T10:14:10.333Z,2.90
2018-12-09T10:15:10.342Z,4.00
2018-12-09T10:16:10.333Z,5.80
2018-12-09T10:17:10.296Z,4.40
2018-12-09T10:18:10.290Z,2.80
2018-12-09T10:19:10.280Z,2.40
2018-12-09T10:20:10.273Z,3.70
2018-12-09T10:21:10.278Z,2.30
2018-12-09T10:22:10.250Z,3.50
2018-12-09T10:23:10.243Z,3.00
2018-12-09T10:24:10.229Z,6.30
2018-12-09T10:25:10.234Z,4.20
2018-12-09T10:26:10.209Z,3.70
2018-12-09T10:27:10.216Z,2.50
2018-12-09T10:28:10.184Z,4.10
2018-12-09T10:29:10.178Z,3.10
2018-12-09T10:30:10.160Z,3.10
2018-12-09T10:31:10.173Z,2.10
2018-12-09T10:32:10.151Z,3.60
2018-12-09T10:33:10.133Z,6.50
2018-12-09T10:34:10.119Z,3.20
2018-12-09T10:35:10.140Z,4.40
2018-12-09T10:36:10.093Z,2.90
2018-12-09T10:37:10.146Z,3.50
2018-12-09T10:38:10.078Z,6.30
2018-12-09T10:39:10.117Z,2.70
2018-12-09T10:40:10.059Z,3.50
2018-12-09T10:41:10.058Z,3.70
2018-12-09T10:42:10.034Z,1.80
2018-12-09T10:43:10.042Z,3.00
2018-12-09T10:44:10.009Z,2.70
2018-12-09T10:45:09.994Z,2.60
2018-12-09T10:46:09.987Z,3.00
2018-12-09T10:47:09.979Z,4.50
2018-12-09T10:48:09.970Z,2.00
2018-12-09T10:49:09.971Z,3.30
2018-12-09T10:50:09.962Z,2.40
2018-12-09T10:51:09.932Z,2.60
2018-12-09T10:52:09.928Z,2.30
2018-12-09T10:53:09.915Z,1.90
2018-12-09T10:54:09.904Z,3.40
2018-12-09T10:55:09.923Z,2.00
2018-12-09T10:56:09.878Z,2.10
2018-12-09T10:57:09.870Z,2.70
2018-12-09T10:58:09.862Z,3.00
2018-12-09T10:59:09.853Z,3.80
2018-12-09T11:00:09.860Z,2.70
2018-12-09T11:01:09.827Z,2.20
2018-12-09T11:02:09.816Z,2.50
2018-12-09T11:03:09.804Z,3.60
2018-12-09T11:04:09.804Z,2.70
2018-12-09T11:05:09.804Z,2.80
2018-12-09T11:06:09.776Z,3.50
2018-12-09T11:07:09.769Z,2.60
2018-12-09T11:08:09.753Z,2.80
2018-12-09T11:09:09.743Z,2.30
2018-12-09T11:10:09.756Z,2.40
2018-12-09T11:11:09.719Z,2.90
2018-12-09T11:12:09.719Z,2.60
2018-12-09T11:13:09.703Z,2.80
2018-12-09T11:14:09.706Z,2.20
2018-12-09T11:15:09.674Z,3.30
2018-12-09T11:16:09.701Z,2.80
2018-12-09T11:17:09.659Z,2.70
2018-12-09T11:18:09.648Z,3.20
2018-12-09T11:19:09.643Z,4.00
2018-12-09T11:20:09.621Z,3.70
2018-12-09T11:21:09.640Z,3.50
2018-12-09T11:22:09.603Z,3.80
2018-12-09T11:23:09.597Z,3.40
2018-12-09T11:24:09.586Z,3.30
2018-12-09T11:25:09.572Z,3.80
2018-12-09T11:26:09.561Z,3.10
2018-12-09T11:27:09.579Z,3.80
2018-12-09T11:28:09.538Z,3.80
2018-12-09T11:29:09.528Z,4.30
2018-12-09T11:30:09.520Z,4.30
2018-12-09T11:31:09.529Z,6.00
2018-12-09T11:32:09.493Z,5.30
2018-12-09T11:33:09.502Z,5.80
2018-12-09T11:34:09.474Z,7.00
2018-12-09T11:35:09.475Z,8.20
2018-12-09T11:36:09.462Z,6.20
2018-12-09T11:37:09.452Z,7.90
2018-12-09T11:38:09.460Z,9.00
2018-12-09T11:39:09.537Z,7.80
2018-12-09T11:40:09.410Z,6.70
2018-12-09T11:41:09.400Z,7.20
2018-12-09T11:42:09.396Z,8.00
2018-12-09T11:43:09.377Z,8.80
2018-12-09T11:44:09.390Z,10.90
2018-12-09T11:45:09.379Z,12.90
2018-12-09T11:46:09.347Z,9.00
2018-12-09T11:47:09.339Z,8.10
2018-12-09T11:48:09.349Z,8.80
2018-12-09T11:49:09.399Z,6.20
2018-12-09T11:50:09.327Z,6.60
2018-12-09T11:51:09.298Z,7.70
2018-12-09T11:52:10.989Z,6.60
2018-12-09T11:53:09.275Z,6.90
2018-12-09T11:54:09.265Z,5.70
2018-12-09T11:55:09.276Z,5.20
2018-12-09T11:56:09.250Z,5.10
2018-12-09T11:57:09.233Z,5.50
2018-12-09T11:58:09.257Z,5.30
2018-12-09T11:59:09.214Z,8.70
2018-12-09T12:00:09.203Z,7.60
2018-12-09T12:01:09.206Z,6.60
2018-12-09T12:02:09.188Z,3.80
2018-12-09T12:03:09.197Z,4.90
2018-12-09T12:04:09.162Z,7.70
2018-12-09T12:05:09.145Z,6.90
2018-12-09T12:06:09.138Z,4.90
2018-12-09T12:07:09.121Z,9.30
2018-12-09T12:08:09.117Z,8.00
2018-12-09T12:09:09.121Z,4.10
2018-12-09T12:10:09.093Z,2.60
2018-12-09T12:11:09.084Z,4.60
2018-12-09T12:12:09.067Z,3.50
2018-12-09T12:13:09.058Z,6.20
2018-12-09T12:14:09.073Z,8.60
2018-12-09T12:15:09.033Z,13.80
2018-12-09T12:16:09.032Z,10.50
2018-12-09T12:17:09.027Z,5.80
2018-12-09T12:18:09.006Z,6.70
2018-12-09T12:19:08.991Z,10.00
2018-12-09T12:20:09.006Z,8.50
2018-12-09T12:21:08.974Z,8.10
2018-12-09T12:22:08.964Z,5.40
2018-12-09T12:23:08.961Z,6.20
2018-12-09T12:24:08.968Z,7.80
2018-12-09T12:25:08.954Z,5.60
2018-12-09T12:26:08.919Z,9.60
2018-12-09T12:27:09.308Z,4.10
2018-12-09T12:28:08.902Z,4.70
2018-12-09T12:29:08.889Z,4.20
2018-12-09T12:30:08.879Z,3.40
2018-12-09T12:31:08.897Z,4.20
2018-12-09T12:32:08.852Z,11.60
2018-12-09T12:33:08.844Z,3.70
2018-12-09T12:34:08.836Z,3.80
2018-12-09T12:35:08.829Z,8.70
2018-12-09T12:36:08.810Z,3.90
2018-12-09T12:37:08.835Z,3.90
2018-12-09T12:38:08.792Z,3.30
2018-12-09T12:39:08.777Z,4.40
2018-12-09T12:40:10.236Z,3.30
2018-12-09T12:41:08.760Z,4.60
2018-12-09T12:42:08.775Z,4.20
2018-12-09T12:43:08.742Z,3.50
2018-12-09T12:44:08.722Z,5.60
2018-12-09T12:45:08.714Z,7.90
2018-12-09T12:46:08.704Z,4.50
2018-12-09T12:47:08.691Z,5.80
2018-12-09T12:48:08.725Z,4.90
2018-12-09T12:49:08.674Z,5.20
2018-12-09T12:50:08.664Z,4.90
2018-12-09T12:51:08.647Z,5.20
2018-12-09T12:52:08.645Z,3.60
2018-12-09T12:53:08.638Z,5.60
2018-12-09T12:54:08.640Z,5.40
2018-12-09T12:55:08.611Z,5.80
2018-12-09T12:56:08.594Z,8.20
2018-12-09T12:57:08.587Z,4.70
2018-12-09T12:58:08.694Z,6.80
2018-12-09T12:59:08.565Z,6.10
2018-12-09T13:00:08.560Z,6.70
2018-12-09T13:01:08.545Z,7.30
2018-12-09T13:02:08.538Z,6.10
2018-12-09T13:03:08.582Z,5.80
2018-12-09T13:04:08.508Z,5.70
2018-12-09T13:05:09.154Z,6.70
2018-12-09T13:06:08.492Z,6.30
2018-12-09T13:07:08.519Z,7.00
2018-12-09T13:08:08.495Z,6.90
2018-12-09T13:09:08.460Z,6.50
2018-12-09T13:10:08.473Z,6.60
2018-12-09T13:11:08.439Z,6.40
2018-12-09T13:12:08.429Z,7.60
2018-12-09T13:13:08.417Z,8.00
2018-12-09T13:14:08.420Z,7.20
2018-12-09T13:15:08.399Z,6.70
2018-12-09T13:16:08.400Z,7.10
2018-12-09T13:17:08.383Z,8.40